¿Dónde queda Quinta do Outeirão en Portugal?

 

Quinta do Outeirão está situado en la región Santarem en Portugal!

Buscar el nombre de una ciudad:

Quinjomba, Quinenahuin, Quinche, Quincuncá, Quinhante

Aquí usted encontrará la ubicación de Quinta do Outeirão en un mapa.
Para ver cómo se ve en la actualidad, a continuación hay algunas fotos de la región con cámaras web en línea.
También puede encontrar la distancia a las principales ciudades de la región y para las ciudades en el resto de Portugal.

Todos los lugares del mundo llamados .


¿Dónde queda Quinta do Outeirão en el mapa?




Webcams cerca de Quinta do Outeirão

Vasco Carão › South: Garrocheira, Benavente − Airport.


Vasco Carão › South: Garrocheira, Benavente − Airport - El día
Actuales
Vasco Carão › South: Garrocheira, Benavente − Airport - Actuales

Benavente › North-East: AIrport, METAR: BENAV 180005Z 36004KT 17/14 Q1015.


Benavente › North-East: AIrport, METAR: BENAV 180005Z 36004KT 17/14 Q1015 - El día
Actuales
Benavente › North-East: AIrport, METAR: BENAV 180005Z 36004KT 17/14 Q1015 - Actuales

Abrantes › North-West: › North-West: Zona Alta (Torre).


Abrantes › North-West: › North-West: Zona Alta (Torre) - El día
Actuales
Abrantes › North-West: › North-West: Zona Alta (Torre) - Actuales

Webcams provided by webcams.travel


Distancias

¿Dónde queda Quinta do Outeirão en relación con otros lugares?

Top 10 ciudades en Santarem y la distancia de Quinta do Outeirão.

Ciudad#Poblaciónkmmillas
Santarém129385106
Entroncamento2198872314
Tomar3191683924
Torres Novas4145262113
Samora Correia5141544729
Abrantes6136464025
Ourém7127293723
Rio Maior8120642717
Fátima9117983522
Almeirim1011556117

Top 10 ciudades en Portugal y la distancia de Quinta do Outeirão.

Ciudad # Poblaciónkmmillas
Lisbon15177987949
Porto2249630206128
Amadora31788568050
Braga4121393251156
Setúbal51171098955
Coimbra610658010163
Queluz71033988251
Funchal8980411051653
Vila Nova de Gaia970810203126
Loures10662307144



Alertas y advertencias en Portugal

Asesoramiento e información sobre viajes y seguridad en Portugal

Con una advertencia de viaje, los turistas pueden ser informados de los riesgos de seguridad durante las vacaciones o de viaje en un país extranjero.Estar informado acerca de los riesgos de secuestro, robo a mano armada, atentados, catástrofes naturales o guerras. No saben qué áreas son seguras en Portugal. Estar alerta, o evitar ciertas áreas cuando está de vacaciones en Portugal.

Alertas y advertencias



Información de viajes Portugal

Información sobre documentos de viaje, solicitudes de visados y el costo de una visa.
Información de Contacto embajadas en Portugal.
Los diferentes tipos de seguro de viaje.

Información de viajes

Info

Estadística y Geografía

Portugal se compone de 15299 ciudades en 20 regiones.

La región Santarem tiene 1174 ciudades.

¿Dónde queda Quinta do Outeirão en Portugal?